Time;durP1;ratioP1;P1;durP2;ratioP2;P2;SDS_P1;SDS_P2;PMS_P1;PMS_P2;Temp;Humidity;BMP_temperature;BMP_pressure;BME280_temperature;BME280_humidity;BME280_pressure;Samples;Min_cycle;Max_cycle;Signal;HPM_P1;HPM_P2
2021/12/11 00:01:58;;;;;;;4.80;1.50;;;5.60;99.90;;;;;;5015418;28;20298;-77
2021/12/11 00:04:31;;;;;;;3.10;1.50;;;5.70;99.90;;;;;;5014889;28;20203;-76
2021/12/11 00:07:02;;;;;;;3.70;1.80;;;5.50;99.90;;;;;;5016178;28;20261;-77
2021/12/11 00:09:35;;;;;;;3.38;1.50;;;5.40;99.90;;;;;;5015695;28;20285;-76
2021/12/11 00:12:07;;;;;;;4.43;1.92;;;5.60;99.90;;;;;;5014272;28;20233;-77
2021/12/11 00:14:38;;;;;;;4.05;1.38;;;5.60;99.90;;;;;;5015225;28;20195;-76
2021/12/11 00:17:06;;;;;;;4.30;1.90;;;5.50;99.90;;;;;;5013942;28;20187;-77
2021/12/11 00:19:36;;;;;;;3.38;1.80;;;5.50;99.90;;;;;;5014170;28;20641;-77
2021/12/11 00:22:06;;;;;;;3.65;1.60;;;5.50;99.90;;;;;;5014535;28;20443;-76
2021/12/11 00:24:36;;;;;;;2.92;1.45;;;5.60;99.90;;;;;;5013827;28;20680;-76
2021/12/11 00:27:06;;;;;;;2.97;1.30;;;5.50;99.90;;;;;;5014324;28;20234;-77
2021/12/11 00:29:35;;;;;;;4.15;1.75;;;5.40;99.90;;;;;;5013962;28;20241;-76
2021/12/11 00:32:05;;;;;;;3.03;1.38;;;5.80;99.90;;;;;;5013836;28;20558;-76
2021/12/11 00:34:32;;;;;;;2.75;1.20;;;5.50;99.90;;;;;;5013529;28;20230;-77
2021/12/11 00:37:02;;;;;;;3.25;1.30;;;5.50;99.90;;;;;;5013487;28;20210;-77
2021/12/11 00:39:29;;;;;;;3.00;1.60;;;5.60;99.90;;;;;;5013421;28;20223;-77
2021/12/11 00:42:00;;;;;;;3.75;1.60;;;5.70;99.90;;;;;;5013416;28;20306;-76
2021/12/11 00:44:35;;;;;;;3.70;1.80;;;5.70;99.90;;;;;;5014036;28;20191;-78
2021/12/11 00:47:12;;;;;;;3.10;1.67;;;5.50;99.90;;;;;;5014773;28;20187;-77
2021/12/11 00:49:47;;;;;;;3.75;1.65;;;5.80;99.90;;;;;;5013795;28;20238;-77
2021/12/11 00:52:14;;;;;;;3.95;2.30;;;5.60;99.90;;;;;;5013952;28;20231;-77
2021/12/11 00:54:43;;;;;;;2.70;1.00;;;5.80;99.90;;;;;;5013303;28;20215;-77
2021/12/11 00:57:14;;;;;;;4.30;1.38;;;5.70;99.90;;;;;;5013542;28;20227;-77
2021/12/11 00:59:41;;;;;;;3.42;1.67;;;5.90;99.90;;;;;;5013149;28;20223;-77
2021/12/11 01:02:08;;;;;;;3.40;1.30;;;5.90;99.90;;;;;;5013074;28;20207;-77
2021/12/11 01:04:41;;;;;;;4.10;1.35;;;5.80;99.90;;;;;;5013002;28;20683;-76
2021/12/11 01:07:16;;;;;;;4.45;2.08;;;5.90;99.90;;;;;;5014661;28;20194;-77
2021/12/11 01:09:48;;;;;;;3.53;0.90;;;6.30;99.90;;;;;;5017285;28;20227;-77
2021/12/11 01:12:23;;;;;;;2.80;0.85;;;6.10;99.90;;;;;;5018099;28;20222;-77
2021/12/11 01:14:55;;;;;;;2.55;1.00;;;6.40;99.90;;;;;;5017941;28;20194;-77
2021/12/11 01:17:31;;;;;;;2.50;0.90;;;5.90;99.90;;;;;;5017439;28;20661;-77
2021/12/11 01:20:01;;;;;;;3.17;1.30;;;5.60;99.90;;;;;;5017702;28;20226;-77
2021/12/11 01:22:35;;;;;;;3.25;1.25;;;5.30;99.90;;;;;;5017443;28;20200;-77
2021/12/11 01:25:06;;;;;;;3.15;1.20;;;5.20;99.90;;;;;;5017784;28;20199;-78
2021/12/11 01:27:34;;;;;;;3.45;1.30;;;5.10;99.90;;;;;;5018073;28;20191;-77
2021/12/11 01:30:05;;;;;;;3.65;1.10;;;5.10;99.90;;;;;;5017365;28;20263;-76
2021/12/11 01:32:34;;;;;;;3.97;1.90;;;4.90;99.90;;;;;;5017982;28;20196;-77
2021/12/11 01:35:04;;;;;;;2.95;1.00;;;4.80;99.90;;;;;;5018650;28;20219;-77
2021/12/11 01:37:31;;;;;;;2.60;1.15;;;4.80;99.90;;;;;;5019143;28;20197;-76
2021/12/11 01:39:58;;;;;;;2.50;1.10;;;4.90;99.90;;;;;;5016575;28;20228;-76
2021/12/11 01:42:28;;;;;;;2.92;1.30;;;4.90;99.90;;;;;;5018185;28;20195;-77
2021/12/11 01:44:58;;;;;;;2.78;1.15;;;4.90;99.90;;;;;;5019528;28;20215;-77
2021/12/11 01:47:29;;;;;;;2.58;1.10;;;4.90;99.90;;;;;;5016491;28;20221;-77
2021/12/11 01:49:59;;;;;;;2.70;1.30;;;4.90;99.90;;;;;;5017045;28;20238;-78
2021/12/11 01:52:35;;;;;;;3.80;1.30;;;5.00;99.90;;;;;;5017520;28;20215;-76
2021/12/11 01:55:09;;;;;;;3.42;1.42;;;5.00;99.90;;;;;;5016284;28;20191;-76
2021/12/11 01:57:36;;;;;;;2.70;1.20;;;5.00;99.90;;;;;;5016839;28;20624;-76
2021/12/11 02:00:11;;;;;;;2.80;1.23;;;4.90;99.90;;;;;;5020149;28;20233;-77
2021/12/11 02:02:41;;;;;;;3.03;1.75;;;5.10;99.90;;;;;;5018674;28;20652;-77
2021/12/11 02:05:11;;;;;;;2.90;1.10;;;5.00;99.90;;;;;;5017983;28;20196;-77
2021/12/11 02:07:43;;;;;;;2.55;1.05;;;4.70;99.90;;;;;;5018559;28;20203;-77
2021/12/11 02:10:18;;;;;;;2.47;1.08;;;4.90;99.90;;;;;;5017370;28;20227;-79
2021/12/11 02:12:45;;;;;;;2.95;1.20;;;5.10;99.90;;;;;;5017279;28;20226;-77
2021/12/11 02:15:17;;;;;;;3.30;1.00;;;5.10;99.90;;;;;;5016570;28;20699;-77
2021/12/11 02:17:50;;;;;;;4.70;1.83;;;4.60;99.90;;;;;;5017480;28;20239;-77
2021/12/11 02:20:26;;;;;;;2.50;0.95;;;4.70;99.90;;;;;;5016875;28;20235;-76
2021/12/11 02:22:55;;;;;;;2.70;0.90;;;4.70;99.90;;;;;;5017037;28;20192;-77
2021/12/11 02:25:26;;;;;;;2.20;0.90;;;5.00;99.90;;;;;;5016755;28;20203;-77
2021/12/11 02:27:56;;;;;;;2.20;0.70;;;4.80;99.90;;;;;;5018095;28;20286;-77
2021/12/11 02:30:27;;;;;;;2.40;0.90;;;5.00;99.90;;;;;;5015822;28;20239;-75
2021/12/11 02:33:06;;;;;;;2.83;1.15;;;4.80;99.90;;;;;;5017169;28;20222;-77
2021/12/11 02:35:37;;;;;;;2.40;0.80;;;4.80;99.90;;;;;;5016614;28;20239;-77
2021/12/11 02:38:11;;;;;;;2.20;0.63;;;5.10;99.90;;;;;;5015885;28;20278;-77
2021/12/11 02:40:41;;;;;;;2.20;0.75;;;5.00;99.90;;;;;;5016671;28;20231;-77
2021/12/11 02:43:15;;;;;;;2.50;0.80;;;4.80;99.90;;;;;;5015810;28;20207;-77
2021/12/11 02:45:46;;;;;;;2.13;0.63;;;4.80;99.90;;;;;;5016480;28;20277;-77
2021/12/11 02:48:18;;;;;;;2.20;0.70;;;4.60;99.90;;;;;;5015986;28;20744;-77
2021/12/11 02:50:50;;;;;;;2.85;0.85;;;4.70;99.90;;;;;;5017399;28;20235;-77
2021/12/11 02:53:23;;;;;;;2.72;0.70;;;4.50;99.90;;;;;;5016045;28;20192;-77
2021/12/11 02:55:54;;;;;;;2.40;0.77;;;4.60;99.90;;;;;;5016099;28;20187;-78
2021/12/11 02:58:25;;;;;;;2.45;0.93;;;4.30;99.90;;;;;;5016972;28;20603;-76
2021/12/11 03:00:56;;;;;;;2.50;0.80;;;4.40;99.90;;;;;;5016150;28;20254;-77
2021/12/11 03:03:26;;;;;;;2.50;0.80;;;4.40;99.90;;;;;;5015546;28;20196;-77
2021/12/11 03:06:00;;;;;;;2.30;0.80;;;4.30;99.90;;;;;;5015324;28;20235;-76
2021/12/11 03:08:29;;;;;;;2.20;0.70;;;4.40;99.90;;;;;;5015929;28;20195;-77
2021/12/11 03:10:59;;;;;;;3.08;1.40;;;4.50;99.90;;;;;;5015715;28;20237;-77
2021/12/11 03:13:29;;;;;;;2.50;0.90;;;4.50;99.90;;;;;;5015284;28;20192;-78
2021/12/11 03:15:56;;;;;;;3.35;1.05;;;4.60;99.90;;;;;;5016050;28;20215;-77
2021/12/11 03:18:23;;;;;;;2.10;0.63;;;4.80;99.90;;;;;;5016032;28;20230;-77
2021/12/11 03:20:53;;;;;;;2.30;0.70;;;4.60;99.90;;;;;;5015693;28;20223;-77
2021/12/11 03:23:20;;;;;;;2.70;0.90;;;4.70;99.90;;;;;;5016107;28;20207;-77
2021/12/11 03:25:49;;;;;;;2.40;0.85;;;4.70;99.90;;;;;;5015651;28;20295;-77
2021/12/11 03:28:17;;;;;;;2.55;1.00;;;4.90;99.90;;;;;;5015037;28;20596;-77
2021/12/11 03:30:50;;;;;;;3.38;1.17;;;4.90;99.90;;;;;;5014554;28;20269;-77
2021/12/11 03:33:19;;;;;;;3.60;1.13;;;5.10;99.90;;;;;;5014786;28;20192;-77
2021/12/11 03:35:47;;;;;;;3.58;0.90;;;4.90;99.90;;;;;;5015223;28;20298;-76
2021/12/11 03:38:16;;;;;;;2.60;1.00;;;4.80;99.90;;;;;;5014890;28;20243;-77
2021/12/11 03:40:43;;;;;;;3.30;1.10;;;4.80;99.90;;;;;;5014143;28;20239;-77
2021/12/11 03:43:14;;;;;;;3.10;1.33;;;4.70;99.90;;;;;;5014578;28;20207;-77
2021/12/11 03:45:44;;;;;;;3.00;1.38;;;4.70;99.90;;;;;;5015696;28;20198;-77
2021/12/11 03:48:15;;;;;;;3.60;1.92;;;4.70;99.90;;;;;;5015233;28;20203;-77
2021/12/11 03:50:44;;;;;;;3.25;1.60;;;4.70;99.90;;;;;;5014258;28;20239;-77
2021/12/11 03:53:12;;;;;;;3.03;1.60;;;4.90;99.90;;;;;;5015806;28;20688;-77
2021/12/11 03:55:43;;;;;;;3.35;1.65;;;4.90;99.90;;;;;;5014508;28;20206;-76
2021/12/11 03:58:12;;;;;;;2.97;1.75;;;4.90;99.90;;;;;;5015259;28;20202;-77
2021/12/11 04:00:43;;;;;;;3.53;2.10;;;4.90;99.90;;;;;;5014702;28;20599;-77
2021/12/11 04:03:14;;;;;;;3.13;1.80;;;4.80;99.90;;;;;;5015489;28;20194;-77
2021/12/11 04:05:43;;;;;;;3.72;2.33;;;4.90;99.90;;;;;;5014314;28;20271;-77
2021/12/11 04:08:15;;;;;;;3.20;2.30;;;5.10;99.90;;;;;;5014299;28;20207;-76
2021/12/11 04:10:42;;;;;;;3.17;2.08;;;4.90;99.90;;;;;;5014432;28;20231;-77
2021/12/11 04:13:13;;;;;;;3.90;2.15;;;5.10;99.90;;;;;;5014626;28;20234;-76
2021/12/11 04:15:42;;;;;;;2.90;1.63;;;5.10;99.90;;;;;;5013498;28;20188;-77
2021/12/11 04:18:09;;;;;;;3.00;1.63;;;5.10;99.90;;;;;;5013785;28;20207;-77
2021/12/11 04:20:39;;;;;;;3.40;1.70;;;5.20;99.90;;;;;;5013749;28;20231;-76
2021/12/11 04:23:11;;;;;;;3.20;1.90;;;5.00;99.90;;;;;;5014691;28;20226;-76
2021/12/11 04:25:38;;;;;;;3.40;2.00;;;5.00;99.90;;;;;;5014675;28;20195;-77
2021/12/11 04:28:05;;;;;;;5.07;2.50;;;5.00;99.90;;;;;;5013474;28;20235;-76
2021/12/11 04:30:34;;;;;;;4.13;2.70;;;4.90;99.90;;;;;;5013356;28;20238;-77
2021/12/11 04:33:01;;;;;;;4.00;2.35;;;5.10;99.90;;;;;;5013399;28;20212;-77
2021/12/11 04:35:30;;;;;;;7.28;2.60;;;5.10;99.90;;;;;;5015011;28;20589;-76
2021/12/11 04:37:59;;;;;;;3.30;2.10;;;4.90;99.90;;;;;;5015686;28;20281;-77
2021/12/11 04:40:32;;;;;;;3.80;2.25;;;5.00;99.90;;;;;;5013911;28;20227;-78
2021/12/11 04:43:04;;;;;;;3.47;2.47;;;4.90;99.90;;;;;;5014302;28;20536;-77
2021/12/11 04:45:38;;;;;;;4.15;2.45;;;5.00;99.90;;;;;;5014815;28;20269;-77
2021/12/11 04:48:12;;;;;;;4.28;2.53;;;5.00;99.90;;;;;;5013436;28;20676;-76
2021/12/11 04:50:47;;;;;;;4.00;2.47;;;5.10;99.90;;;;;;5013895;28;20308;-76
2021/12/11 04:53:34;;;;;;;3.67;2.47;;;5.10;99.90;;;;;;5014914;28;20292;-76
2021/12/11 04:56:23;;;;;;;6.30;2.88;;;5.10;99.90;;;;;;5014049;28;20219;-77
2021/12/11 04:59:10;;;;;;;4.15;3.05;;;5.00;99.90;;;;;;5014068;28;20192;-77
2021/12/11 05:01:49;;;;;;;5.00;3.70;;;5.00;99.90;;;;;;5013553;28;20294;-77
2021/12/11 05:07:05;;;;;;;4.70;3.58;;;5.00;99.90;;;;;;5014355;28;20214;-77
2021/12/11 05:09:39;;;;;;;3.85;2.65;;;5.00;99.90;;;;;;5014780;28;20235;-77
2021/12/11 05:12:17;;;;;;;5.15;3.53;;;5.10;99.90;;;;;;5013204;28;20195;-77
2021/12/11 05:14:45;;;;;;;5.15;3.58;;;5.10;99.90;;;;;;5013061;28;20282;-76
2021/12/11 05:17:14;;;;;;;4.78;3.10;;;5.10;99.90;;;;;;5013141;28;20294;-76
2021/12/11 05:19:43;;;;;;;4.70;3.30;;;4.90;99.90;;;;;;5013439;28;20231;-77
2021/12/11 05:22:11;;;;;;;4.63;3.20;;;4.90;99.90;;;;;;5013229;28;20203;-76
2021/12/11 05:24:41;;;;;;;5.00;3.90;;;5.10;99.90;;;;;;5013470;28;20211;-77
2021/12/11 05:27:08;;;;;;;4.90;3.80;;;5.20;99.90;;;;;;5013507;28;20242;-76
2021/12/11 05:29:35;;;;;;;5.10;3.65;;;4.90;99.90;;;;;;5030341;22;20640;-79
2021/12/11 05:32:04;;;;;;;5.40;3.85;;;5.00;99.90;;;;;;5033275;28;20196;-78
2021/12/11 05:34:33;;;;;;;5.43;3.60;;;5.20;99.90;;;;;;5033057;28;20699;-78
2021/12/11 05:37:00;;;;;;;5.57;3.60;;;5.20;99.90;;;;;;5035184;28;20225;-78
2021/12/11 05:39:27;;;;;;;4.85;3.90;;;5.10;99.90;;;;;;5037616;28;20294;-78
2021/12/11 05:41:54;;;;;;;4.80;3.50;;;5.20;99.90;;;;;;5037497;28;20619;-78
2021/12/11 05:44:23;;;;;;;5.40;3.80;;;4.80;99.90;;;;;;5032547;28;20221;-78
2021/12/11 05:46:52;;;;;;;4.40;3.20;;;4.80;99.90;;;;;;5032409;28;20262;-78
2021/12/11 05:49:19;;;;;;;5.13;3.88;;;5.00;99.90;;;;;;5032903;28;20207;-78
2021/12/11 05:51:50;;;;;;;5.18;4.20;;;4.90;99.90;;;;;;5037613;28;20242;-78
2021/12/11 05:54:22;;;;;;;6.78;4.50;;;5.10;99.90;;;;;;5043946;28;20219;-78
2021/12/11 05:56:53;;;;;;;5.43;4.13;;;4.80;99.90;;;;;;5041353;28;20188;-78
2021/12/11 05:59:19;;;;;;;5.43;3.92;;;4.90;99.90;;;;;;5039353;28;20195;-78
2021/12/11 06:01:49;;;;;;;6.07;4.80;;;5.00;99.90;;;;;;5036167;28;20249;-78
2021/12/11 06:04:20;;;;;;;6.10;4.47;;;5.00;99.90;;;;;;5039774;28;20211;-78
2021/12/11 06:06:49;;;;;;;4.90;3.65;;;4.80;99.90;;;;;;5046487;28;20701;-78
2021/12/11 06:09:19;;;;;;;5.53;3.63;;;4.80;99.90;;;;;;5045898;28;20213;-78
2021/12/11 06:11:49;;;;;;;5.38;4.15;;;5.00;99.90;;;;;;5046243;28;20191;-78
2021/12/11 06:14:17;;;;;;;6.15;4.88;;;5.00;99.90;;;;;;5037784;28;20207;-78
2021/12/11 06:16:43;;;;;;;5.53;4.13;;;4.90;99.90;;;;;;5043716;28;20241;-78
2021/12/11 06:19:10;;;;;;;6.60;4.50;;;5.00;99.90;;;;;;5040441;28;20298;-78
2021/12/11 06:21:38;;;;;;;4.22;3.22;;;5.00;99.90;;;;;;5036428;28;20581;-78
2021/12/11 06:24:06;;;;;;;5.47;4.10;;;5.00;99.90;;;;;;5035939;28;20207;-78
2021/12/11 06:26:34;;;;;;;4.82;3.85;;;5.30;99.90;;;;;;5037310;28;20617;-78
2021/12/11 06:29:02;;;;;;;5.07;3.83;;;5.00;99.90;;;;;;5039274;28;20698;-78
2021/12/11 06:31:29;;;;;;;5.38;3.95;;;4.90;99.90;;;;;;5044145;28;20238;-78
2021/12/11 06:33:56;;;;;;;6.25;4.47;;;5.00;99.90;;;;;;5035894;28;20246;-78
2021/12/11 06:36:28;;;;;;;6.28;4.78;;;4.90;99.90;;;;;;5035924;28;20681;-78
2021/12/11 06:38:57;;;;;;;7.22;5.70;;;4.90;99.90;;;;;;5036200;28;20191;-77
2021/12/11 06:41:31;;;;;;;7.07;5.35;;;4.90;99.90;;;;;;5035496;28;20339;-77
2021/12/11 06:43:58;;;;;;;7.65;5.93;;;5.20;99.90;;;;;;5035465;28;20270;-78
2021/12/11 06:46:25;;;;;;;7.20;5.10;;;5.40;99.90;;;;;;5036638;28;20207;-78
2021/12/11 06:48:52;;;;;;;6.25;4.95;;;5.10;99.90;;;;;;5036826;28;20207;-78
2021/12/11 06:51:19;;;;;;;6.75;5.20;;;5.00;99.90;;;;;;5036266;28;20521;-78
2021/12/11 06:53:51;;;;;;;7.50;5.40;;;5.20;99.90;;;;;;5037035;28;20667;-77
2021/12/11 06:56:21;;;;;;;8.30;6.03;;;5.50;99.90;;;;;;5038945;28;20187;-78
2021/12/11 06:58:51;;;;;;;6.57;5.15;;;5.10;99.90;;;;;;5034415;28;20199;-77
2021/12/11 07:01:20;;;;;;;8.63;5.95;;;5.30;99.90;;;;;;5034284;28;20227;-77
2021/12/11 07:03:47;;;;;;;8.13;6.80;;;5.00;99.90;;;;;;5034863;28;20213;-77
2021/12/11 07:06:15;;;;;;;8.98;6.53;;;5.00;99.90;;;;;;5035617;28;20214;-78
2021/12/11 07:08:43;;;;;;;7.30;6.00;;;4.90;99.90;;;;;;5035388;28;20233;-80
2021/12/11 07:11:11;;;;;;;8.13;6.07;;;4.90;99.90;;;;;;5034796;28;20226;-79
2021/12/11 07:13:38;;;;;;;8.40;5.18;;;5.10;99.90;;;;;;5037247;28;20195;-78
2021/12/11 07:16:07;;;;;;;7.45;6.35;;;5.30;99.90;;;;;;5037059;28;20242;-79
2021/12/11 07:18:35;;;;;;;8.88;6.63;;;5.30;99.90;;;;;;5036085;28;20351;-81
2021/12/11 07:21:05;;;;;;;8.23;5.95;;;5.10;99.90;;;;;;5036065;28;20719;-80
2021/12/11 07:23:33;;;;;;;6.30;5.15;;;5.50;99.90;;;;;;5037160;28;20583;-81
2021/12/11 07:26:02;;;;;;;5.97;4.63;;;5.50;99.90;;;;;;5039278;28;20290;-81
2021/12/11 07:28:30;;;;;;;6.20;5.00;;;5.50;99.90;;;;;;5045857;28;20306;-79
2021/12/11 07:31:00;;;;;;;7.00;5.40;;;5.40;99.90;;;;;;5039898;28;20239;-79
2021/12/11 07:33:29;;;;;;;6.53;4.60;;;5.50;99.90;;;;;;5052606;28;20198;-79
2021/12/11 07:35:55;;;;;;;6.85;5.00;;;5.40;99.90;;;;;;5035931;28;20216;-78
2021/12/11 07:38:23;;;;;;;7.40;5.20;;;5.30;99.90;;;;;;5035710;28;20289;-79
2021/12/11 07:40:54;;;;;;;9.57;6.13;;;5.20;99.90;;;;;;5035800;28;20231;-79
2021/12/11 07:43:23;;;;;;;8.25;6.20;;;5.10;99.90;;;;;;5036250;28;20225;-79
2021/12/11 07:45:50;;;;;;;8.77;7.00;;;5.30;99.90;;;;;;5035627;28;20213;-79
2021/12/11 07:48:17;;;;;;;7.35;5.85;;;5.20;99.90;;;;;;5036587;28;20223;-79
2021/12/11 07:50:46;;;;;;;8.13;5.80;;;5.00;99.90;;;;;;5041025;28;20298;-79
2021/12/11 07:53:15;;;;;;;8.90;6.82;;;5.30;99.90;;;;;;5038678;28;20229;-81
2021/12/11 07:55:42;;;;;;;7.60;6.10;;;5.30;99.90;;;;;;5037355;28;20203;-78
2021/12/11 07:58:09;;;;;;;9.27;6.95;;;5.30;99.90;;;;;;5040470;28;20257;-79
2021/12/11 08:00:41;;;;;;;10.13;7.10;;;5.30;99.90;;;;;;5039091;28;20231;-80
2021/12/11 08:03:10;;;;;;;9.90;7.65;;;5.20;99.90;;;;;;5036755;28;20195;-79
2021/12/11 08:05:39;;;;;;;12.15;7.50;;;5.00;99.90;;;;;;5036765;28;20294;-80
2021/12/11 08:08:10;;;;;;;9.02;7.30;;;5.30;99.90;;;;;;5038416;28;20227;-77
2021/12/11 08:10:40;;;;;;;10.25;7.55;;;5.40;99.90;;;;;;5034156;28;20223;-78
2021/12/11 08:13:07;;;;;;;10.48;7.32;;;5.50;99.90;;;;;;5032538;28;20191;-77
2021/12/11 08:15:35;;;;;;;10.93;8.25;;;5.50;99.90;;;;;;5032919;28;20214;-77
2021/12/11 08:18:02;;;;;;;10.10;7.55;;;5.40;99.90;;;;;;5032384;28;20213;-78
2021/12/11 08:20:32;;;;;;;12.65;8.15;;;5.50;99.90;;;;;;5032848;28;20226;-76
2021/12/11 08:22:59;;;;;;;11.30;7.75;;;5.40;99.90;;;;;;5032551;28;20677;-76
2021/12/11 08:25:30;;;;;;;16.70;8.35;;;5.50;99.90;;;;;;5032660;28;20213;-77
2021/12/11 08:27:59;;;;;;;10.52;8.55;;;5.60;99.90;;;;;;5033045;28;20227;-76
2021/12/11 08:30:29;;;;;;;11.82;8.60;;;5.50;99.90;;;;;;5032161;28;20677;-76
2021/12/11 08:32:56;;;;;;;11.80;8.95;;;5.40;99.90;;;;;;5033280;28;20207;-77
2021/12/11 08:35:23;;;;;;;12.93;8.35;;;5.20;99.90;;;;;;5032671;28;20218;-77
2021/12/11 08:37:52;;;;;;;15.80;8.57;;;5.20;99.90;;;;;;5032882;28;20210;-77
2021/12/11 08:40:22;;;;;;;14.85;8.75;;;5.40;99.90;;;;;;5036692;28;20223;-77
2021/12/11 08:42:50;;;;;;;12.30;9.15;;;5.30;99.90;;;;;;5034408;28;20549;-77
2021/12/11 08:45:23;;;;;;;11.20;8.40;;;5.60;99.90;;;;;;5035823;28;20290;-78
2021/12/11 08:47:53;;;;;;;15.70;10.02;;;5.40;99.90;;;;;;5033632;28;20265;-77
2021/12/11 08:50:23;;;;;;;13.07;8.77;;;5.60;99.90;;;;;;5032645;28;20338;-78
2021/12/11 08:52:52;;;;;;;13.20;9.35;;;5.50;99.90;;;;;;5032614;28;20213;-77
2021/12/11 08:55:24;;;;;;;14.27;10.10;;;5.20;99.90;;;;;;5033405;28;20302;-77
2021/12/11 08:57:53;;;;;;;14.85;11.27;;;5.40;99.90;;;;;;5034013;28;20279;-78
2021/12/11 09:00:26;;;;;;;15.35;11.15;;;5.40;99.90;;;;;;5033438;28;20233;-77
2021/12/11 09:02:57;;;;;;;15.05;10.85;;;5.20;99.90;;;;;;5032283;28;20340;-77
2021/12/11 09:05:28;;;;;;;12.55;9.50;;;5.40;99.90;;;;;;5033805;28;20202;-78
2021/12/11 09:08:03;;;;;;;13.52;10.32;;;5.50;99.90;;;;;;5033577;28;20282;-78
2021/12/11 09:10:35;;;;;;;15.93;11.50;;;5.50;99.90;;;;;;5033003;28;20221;-78
2021/12/11 09:13:10;;;;;;;13.45;10.38;;;5.40;99.90;;;;;;5033665;28;20195;-79
2021/12/11 09:15:42;;;;;;;15.13;10.50;;;5.60;99.90;;;;;;5034249;28;20190;-80
2021/12/11 09:18:14;;;;;;;13.68;9.82;;;5.60;99.90;;;;;;5034227;28;20187;-80
2021/12/11 09:20:44;;;;;;;13.38;9.70;;;5.70;99.90;;;;;;5036061;28;20321;-81
2021/12/11 09:23:17;;;;;;;15.48;10.15;;;5.50;99.90;;;;;;5034896;28;20195;-79
2021/12/11 09:25:50;;;;;;;12.50;9.00;;;5.40;99.90;;;;;;5035929;28;20191;-78
2021/12/11 09:28:27;;;;;;;10.93;9.10;;;5.50;99.90;;;;;;5047033;28;20218;-80
2021/12/11 09:31:04;;;;;;;11.65;8.20;;;5.80;99.90;;;;;;5038849;28;20249;-79
2021/12/11 09:33:34;;;;;;;14.88;9.63;;;5.70;99.90;;;;;;5039410;28;20208;-79
2021/12/11 09:36:06;;;;;;;12.48;9.38;;;5.70;99.90;;;;;;5038019;28;20210;-80
2021/12/11 09:38:36;;;;;;;13.82;9.77;;;5.80;99.90;;;;;;5038318;28;20202;-79
2021/12/11 09:41:18;;;;;;;10.63;8.43;;;5.90;99.90;;;;;;5039091;28;20233;-80
2021/12/11 09:43:51;;;;;;;12.10;9.43;;;6.00;99.90;;;;;;5038505;28;20202;-82
2021/12/11 09:46:21;;;;;;;12.35;9.00;;;5.80;99.90;;;;;;5039639;28;20592;-81
2021/12/11 09:48:50;;;;;;;15.88;11.40;;;6.00;99.90;;;;;;5039781;28;20701;-80
2021/12/11 09:51:26;;;;;;;10.32;8.25;;;6.10;99.90;;;;;;5040505;28;20293;-84
2021/12/11 09:53:57;;;;;;;14.85;8.10;;;6.00;99.90;;;;;;5051563;28;20191;-79
2021/12/11 09:56:27;;;;;;;12.15;7.95;;;6.00;99.90;;;;;;5047104;28;20197;-77
2021/12/11 09:58:57;;;;;;;13.20;7.57;;;6.10;99.90;;;;;;5036486;28;20218;-77
2021/12/11 10:01:27;;;;;;;10.32;7.60;;;6.10;99.90;;;;;;5036111;28;20318;-77
2021/12/11 10:04:00;;;;;;;11.48;8.02;;;6.20;99.90;;;;;;5035920;28;20616;-78
2021/12/11 10:06:49;;;;;;;10.52;7.45;;;6.30;99.90;;;;;;5036422;28;20195;-77
2021/12/11 10:09:20;;;;;;;9.95;7.88;;;6.40;99.90;;;;;;5035678;28;20222;-77
2021/12/11 10:11:51;;;;;;;11.38;7.15;;;6.20;99.90;;;;;;5034579;28;20191;-77
2021/12/11 10:14:23;;;;;;;9.35;7.00;;;6.40;99.90;;;;;;5034745;28;20191;-77
2021/12/11 10:16:53;;;;;;;8.77;6.00;;;6.50;99.90;;;;;;5035887;28;20567;-77
2021/12/11 10:19:21;;;;;;;7.80;5.72;;;6.50;99.90;;;;;;5035308;28;20232;-77
2021/12/11 10:21:51;;;;;;;9.77;6.30;;;6.50;99.90;;;;;;5035045;28;20218;-77
2021/12/11 10:24:23;;;;;;;8.98;6.32;;;6.40;99.90;;;;;;5034618;28;20207;-78
2021/12/11 10:26:53;;;;;;;13.38;7.28;;;6.50;99.90;;;;;;5038496;28;20612;-79
2021/12/11 10:29:21;;;;;;;7.45;5.43;;;6.50;99.90;;;;;;5036264;28;20282;-77
2021/12/11 10:31:53;;;;;;;8.73;5.80;;;6.60;99.90;;;;;;5037244;28;20278;-78
2021/12/11 10:34:24;;;;;;;7.55;5.53;;;6.60;99.90;;;;;;5034880;28;20572;-77
2021/12/11 10:36:54;;;;;;;8.75;5.50;;;6.80;99.90;;;;;;5039949;28;20187;-79
2021/12/11 10:39:22;;;;;;;7.70;5.75;;;6.70;99.90;;;;;;5037624;28;20196;-78
2021/12/11 10:41:49;;;;;;;9.68;6.25;;;6.50;99.90;;;;;;5035260;28;20676;-78
2021/12/11 10:44:19;;;;;;;8.23;4.68;;;6.50;99.90;;;;;;5033961;28;20817;-77
2021/12/11 10:46:52;;;;;;;7.43;5.50;;;6.80;99.90;;;;;;5034443;28;20197;-77
2021/12/11 10:49:20;;;;;;;8.32;5.57;;;6.50;99.90;;;;;;5034529;28;20218;-77
2021/12/11 10:51:50;;;;;;;7.78;5.50;;;6.70;99.90;;;;;;5038045;28;20259;-79
2021/12/11 10:54:18;;;;;;;8.52;5.70;;;6.60;99.90;;;;;;5039471;28;20221;-79
2021/12/11 10:56:46;;;;;;;6.65;5.03;;;6.70;99.90;;;;;;5039780;28;20756;-79
2021/12/11 10:59:16;;;;;;;8.57;5.45;;;6.70;99.90;;;;;;5039425;28;20238;-78
2021/12/11 11:01:49;;;;;;;7.35;5.05;;;6.70;99.90;;;;;;5038486;28;20644;-78
2021/12/11 11:04:19;;;;;;;7.45;5.45;;;6.50;99.90;;;;;;5038889;28;20196;-78
2021/12/11 11:06:47;;;;;;;8.15;5.80;;;6.50;99.90;;;;;;5038395;28;20207;-78
2021/12/11 11:09:16;;;;;;;10.00;6.15;;;6.40;99.90;;;;;;5039568;28;20219;-79
2021/12/11 11:12:12;;;;;;;8.93;5.32;;;6.50;99.90;;;;;;5040058;28;20266;-78
2021/12/11 11:14:40;;;;;;;7.18;4.95;;;6.40;99.90;;;;;;5041302;28;20210;-79
2021/12/11 11:17:11;;;;;;;7.25;5.20;;;6.40;99.90;;;;;;5041323;28;20245;-79
2021/12/11 11:19:40;;;;;;;8.40;5.00;;;6.60;99.90;;;;;;5041313;28;20668;-79
2021/12/11 11:22:10;;;;;;;8.07;4.43;;;6.80;99.90;;;;;;5044936;28;20208;-80
2021/12/11 11:24:41;;;;;;;8.48;5.43;;;6.70;99.90;;;;;;5046815;28;20187;-79
2021/12/11 11:27:09;;;;;;;10.30;5.40;;;6.80;99.90;;;;;;5043668;28;20205;-79
2021/12/11 11:29:38;;;;;;;6.90;4.68;;;6.70;99.90;;;;;;5041253;28;20230;-79
2021/12/11 11:32:11;;;;;;;7.68;5.63;;;6.80;99.90;;;;;;5045477;22;20260;-87
2021/12/11 11:34:41;;;;;;;7.32;5.20;;;6.80;99.90;;;;;;5006767;28;20284;-86
2021/12/11 11:37:11;;;;;;;7.35;5.38;;;6.50;99.90;;;;;;5004011;28;20191;-85
2021/12/11 11:39:39;;;;;;;7.90;4.90;;;6.70;99.90;;;;;;5006798;28;20205;-87
2021/12/11 11:42:10;;;;;;;9.40;6.25;;;6.70;99.90;;;;;;5011396;28;20263;-87
2021/12/11 11:44:40;;;;;;;7.95;6.00;;;6.90;99.90;;;;;;5012729;28;20196;-87
2021/12/11 11:47:12;;;;;;;8.10;5.28;;;7.00;99.90;;;;;;5005688;28;20207;-86
2021/12/11 11:49:41;;;;;;;5.68;4.30;;;6.80;99.90;;;;;;5003209;28;20282;-85
2021/12/11 11:52:11;;;;;;;7.53;5.10;;;6.90;99.90;;;;;;5001494;28;20354;-80
2021/12/11 11:54:43;;;;;;;7.75;5.22;;;6.80;99.90;;;;;;5002123;28;20294;-78
2021/12/11 11:57:13;;;;;;;10.35;5.93;;;6.70;99.90;;;;;;5002063;28;20193;-80
2021/12/11 11:59:40;;;;;;;8.38;5.50;;;6.70;99.90;;;;;;5002221;28;20205;-86
2021/12/11 12:02:12;;;;;;;8.50;5.32;;;6.80;99.90;;;;;;5000958;28;20293;-84
2021/12/11 12:04:40;;;;;;;8.70;5.88;;;6.60;99.90;;;;;;4999534;28;20234;-84
2021/12/11 12:07:08;;;;;;;6.45;4.30;;;6.70;99.90;;;;;;5002963;28;20267;-88
2021/12/11 12:09:38;;;;;;;8.10;5.22;;;6.90;99.90;;;;;;5001406;28;20307;-86
2021/12/11 12:12:06;;;;;;;9.52;5.85;;;6.60;99.90;;;;;;5001164;28;20236;-83
2021/12/11 12:14:34;;;;;;;8.70;5.95;;;6.30;99.90;;;;;;5002805;28;20216;-79
2021/12/11 12:17:02;;;;;;;10.32;6.47;;;6.40;99.90;;;;;;5005546;28;20291;-84
2021/12/11 12:19:31;;;;;;;7.07;5.22;;;6.40;99.90;;;;;;5000833;28;20287;-86
2021/12/11 12:22:03;;;;;;;8.27;5.65;;;6.40;99.90;;;;;;5000152;28;20315;-84
2021/12/11 12:24:32;;;;;;;8.48;5.60;;;6.40;99.90;;;;;;5001251;28;20200;-85
2021/12/11 12:27:00;;;;;;;8.48;5.20;;;6.60;99.90;;;;;;5000823;28;20589;-83
2021/12/11 12:29:28;;;;;;;7.97;5.32;;;6.60;99.90;;;;;;5001633;28;20228;-86
2021/12/11 12:31:59;;;;;;;7.53;4.55;;;6.50;99.90;;;;;;5002236;28;20259;-83
2021/12/11 12:34:28;;;;;;;7.70;5.32;;;6.60;99.90;;;;;;5014579;28;20227;-85
2021/12/11 12:36:58;;;;;;;9.07;4.93;;;6.60;99.90;;;;;;5002785;28;20219;-86
2021/12/11 12:39:33;;;;;;;7.40;4.95;;;6.80;99.90;;;;;;5001836;28;20291;-86
2021/12/11 12:42:15;;;;;;;7.82;5.13;;;6.90;99.90;;;;;;5000752;28;20303;-81
2021/12/11 12:44:43;;;;;;;5.18;3.70;;;7.00;99.90;;;;;;4999229;28;20194;-79
2021/12/11 12:47:13;;;;;;;8.75;5.35;;;6.90;99.90;;;;;;4999938;28;20277;-84
2021/12/11 12:49:45;;;;;;;5.30;3.70;;;6.90;99.90;;;;;;4998720;28;20316;-80
2021/12/11 12:52:24;;;;;;;6.80;3.85;;;7.00;99.90;;;;;;5155414;22;20237;-80
2021/12/11 12:54:52;;;;;;;6.00;4.60;;;6.80;99.90;;;;;;5050658;28;20242;-79
2021/12/11 12:57:25;;;;;;;7.05;4.25;;;7.00;99.90;;;;;;5047621;28;20298;-80
2021/12/11 13:00:14;;;;;;;9.15;4.20;;;6.70;99.90;;;;;;5049293;28;20218;-80
2021/12/11 13:02:45;;;;;;;8.18;5.65;;;6.80;99.90;;;;;;5055095;28;20286;-79
2021/12/11 13:05:18;;;;;;;6.32;4.40;;;6.40;99.90;;;;;;5060290;28;20245;-80
2021/12/11 13:08:05;;;;;;;7.47;5.28;;;6.70;99.90;;;;;;5052701;28;20195;-81
2021/12/11 13:10:37;;;;;;;7.72;5.30;;;6.50;99.90;;;;;;5059126;28;20214;-82
2021/12/11 13:13:08;;;;;;;7.13;5.07;;;6.40;99.90;;;;;;5051848;28;20257;-81
2021/12/11 13:15:38;;;;;;;6.15;4.50;;;6.60;99.90;;;;;;5047017;28;20191;-84